Time;durP1;ratioP1;P1;durP2;ratioP2;P2;SDS_P1;SDS_P2;PMS_P1;PMS_P2;Temp;Humidity;BMP_temperature;BMP_pressure;BME280_temperature;BME280_humidity;BME280_pressure;Samples;Min_cycle;Max_cycle;Signal;HPM_P1;HPM_P2
2021/12/24 00:01:12;;;;;;;13.57;12.50;;;;;;;;;;4955891;28;20042;-69
2021/12/24 00:03:39;;;;;;;13.02;12.00;;;;;;;;;;4966311;28;20127;-69
2021/12/24 00:06:05;;;;;;;13.88;12.77;;;;;;;;;;4963386;28;20483;-70
2021/12/24 00:08:31;;;;;;;13.52;11.45;;;;;;;;;;4961358;28;20106;-70
2021/12/24 00:11:00;;;;;;;13.30;12.10;;;;;;;;;;4971200;28;20697;-69
2021/12/24 00:13:27;;;;;;;12.75;11.82;;;;;;;;;;4981911;28;20041;-71
2021/12/24 00:16:03;;;;;;;12.43;11.52;;;;;;;;;;4964724;28;20082;-70
2021/12/24 00:35:27;;;;;;;12.95;11.95;;;;;;;;;;4929601;29;20071;-69
2021/12/24 00:37:53;;;;;;;13.80;12.45;;;;;;;;;;4922510;29;20059;-69
2021/12/24 00:40:19;;;;;;;12.52;11.55;;;;;;;;;;4929186;29;20491;-71
2021/12/24 00:42:48;;;;;;;13.10;11.88;;;;;;;;;;4934398;29;20047;-70
2021/12/24 00:45:17;;;;;;;13.02;11.77;;;;;;;;;;4935041;29;20580;-70
2021/12/24 00:47:43;;;;;;;13.35;12.23;;;;;;;;;;4933644;29;20043;-69
2021/12/24 00:50:13;;;;;;;12.88;11.80;;;;;;;;;;4935009;29;20043;-70
2021/12/24 00:52:52;;;;;;;13.20;12.20;;;;;;;;;;4938766;28;20039;-70
2021/12/24 00:55:22;;;;;;;12.63;11.73;;;;;;;;;;4918244;29;20771;-70
2021/12/24 00:57:52;;;;;;;11.95;11.02;;;;;;;;;;4934197;29;20337;-71
2021/12/24 01:00:27;;;;;;;12.70;11.57;;;;;;;;;;4953990;29;20122;-71
2021/12/24 01:02:55;;;;;;;12.93;11.82;;;;;;;;;;4962848;28;20114;-69
2021/12/24 01:05:23;;;;;;;13.73;12.55;;;;;;;;;;4954407;29;20055;-70
2021/12/24 01:07:49;;;;;;;12.70;11.77;;;;;;;;;;4958022;28;20034;-70
2021/12/24 01:10:19;;;;;;;12.75;11.70;;;;;;;;;;4959516;28;20039;-71
2021/12/24 01:12:45;;;;;;;13.00;12.07;;;;;;;;;;4956736;28;20038;-70
2021/12/24 01:15:14;;;;;;;13.48;12.48;;;;;;;;;;4954146;29;20074;-70
2021/12/24 01:17:55;;;;;;;14.05;12.65;;;;;;;;;;4954957;28;20461;-71
2021/12/24 01:25:53;;;;;;;12.95;11.98;;;;;;;;;;4957189;28;20114;-70
2021/12/24 01:39:20;;;;;;;13.10;11.90;;;;;;;;;;4955225;29;20391;-69
2021/12/24 01:44:30;;;;;;;16.23;13.52;;;;;;;;;;4957819;28;20074;-69
2021/12/24 01:47:06;;;;;;;15.63;14.18;;;;;;;;;;4952965;29;20035;-70
2021/12/24 01:49:33;;;;;;;13.82;12.52;;;;;;;;;;4979239;23;20050;-69
2021/12/24 01:52:02;;;;;;;14.10;12.98;;;;;;;;;;4964787;28;20126;-69
2021/12/24 01:54:29;;;;;;;13.07;12.02;;;;;;;;;;4964178;28;20083;-69
2021/12/24 01:56:55;;;;;;;14.13;12.80;;;;;;;;;;4947872;29;20031;-69
2021/12/24 01:59:20;;;;;;;13.20;12.25;;;;;;;;;;4964949;28;20396;-69
2021/12/24 02:01:49;;;;;;;13.73;12.60;;;;;;;;;;4953390;28;20042;-69
2021/12/24 02:04:15;;;;;;;12.75;11.85;;;;;;;;;;4955991;28;20403;-69
2021/12/24 02:06:42;;;;;;;13.52;12.43;;;;;;;;;;4955055;28;20039;-69
2021/12/24 02:09:09;;;;;;;13.15;12.05;;;;;;;;;;4964097;28;20051;-69
2021/12/24 02:11:38;;;;;;;12.30;11.40;;;;;;;;;;4947810;29;20043;-69
2021/12/24 02:14:14;;;;;;;13.13;12.23;;;;;;;;;;4955228;28;20027;-69
2021/12/24 02:29:56;;;;;;;12.13;11.05;;;;;;;;;;4947769;29;20039;-68
2021/12/24 02:32:22;;;;;;;12.70;11.80;;;;;;;;;;4948174;29;20062;-69
2021/12/24 02:34:48;;;;;;;12.82;11.82;;;;;;;;;;4942204;29;20098;-69
2021/12/24 02:37:14;;;;;;;12.30;11.40;;;;;;;;;;4948415;29;20769;-69
2021/12/24 02:39:40;;;;;;;12.38;11.48;;;;;;;;;;4948671;28;20502;-69
2021/12/24 02:42:12;;;;;;;12.65;11.65;;;;;;;;;;4956573;28;20045;-69
2021/12/24 02:44:37;;;;;;;12.63;11.73;;;;;;;;;;4932641;29;20031;-68
2021/12/24 02:55:07;;;;;;;12.32;11.52;;;;;;;;;;4949508;28;20418;-69
2021/12/24 02:57:35;;;;;;;12.65;11.65;;;;;;;;;;4947978;28;20027;-69
2021/12/24 03:00:07;;;;;;;12.40;11.43;;;;;;;;;;4946775;29;20062;-69
2021/12/24 03:02:37;;;;;;;13.02;12.02;;;;;;;;;;4948249;29;20040;-69
2021/12/24 03:05:03;;;;;;;13.25;12.25;;;;;;;;;;4948465;28;20383;-69
2021/12/24 03:07:29;;;;;;;13.02;12.10;;;;;;;;;;4933206;28;20062;-69
2021/12/24 03:09:55;;;;;;;12.98;12.07;;;;;;;;;;4950256;28;20486;-68
2021/12/24 03:12:22;;;;;;;12.63;11.57;;;;;;;;;;4948476;28;20043;-69
2021/12/24 03:14:48;;;;;;;13.88;12.80;;;;;;;;;;4949966;28;20407;-69
2021/12/24 03:17:18;;;;;;;12.85;11.85;;;;;;;;;;4947310;29;20035;-69
2021/12/24 03:19:44;;;;;;;13.45;12.25;;;;;;;;;;4952358;29;20039;-68
2021/12/24 03:24:54;;;;;;;13.07;12.15;;;;;;;;;;4957696;28;20031;-69
2021/12/24 03:27:22;;;;;;;13.20;12.10;;;;;;;;;;4954690;28;20115;-69
2021/12/24 03:29:50;;;;;;;12.18;11.38;;;;;;;;;;4951663;29;20032;-69
2021/12/24 03:32:16;;;;;;;12.25;11.45;;;;;;;;;;4943007;28;20076;-69
2021/12/24 03:34:42;;;;;;;12.55;11.55;;;;;;;;;;4970974;28;20035;-69
2021/12/24 03:37:08;;;;;;;12.60;11.65;;;;;;;;;;4951387;29;20043;-69
2021/12/24 03:39:35;;;;;;;12.52;11.55;;;;;;;;;;4967460;28;20090;-69
2021/12/24 03:42:05;;;;;;;12.15;11.15;;;;;;;;;;4949387;28;20039;-69
2021/12/24 03:44:37;;;;;;;12.45;11.57;;;;;;;;;;4970297;28;20050;-69
2021/12/24 03:47:11;;;;;;;12.77;11.88;;;;;;;;;;4949625;28;20039;-68
2021/12/24 03:55:01;;;;;;;12.82;11.93;;;;;;;;;;4945578;29;20498;-69
2021/12/24 03:57:41;;;;;;;12.40;11.55;;;;;;;;;;4950393;29;20038;-69
2021/12/24 04:00:32;;;;;;;12.73;11.73;;;;;;;;;;4951037;28;20070;-69
2021/12/24 04:03:20;;;;;;;12.52;11.68;;;;;;;;;;4948743;28;20050;-68
2021/12/24 04:06:15;;;;;;;13.05;12.05;;;;;;;;;;4929189;29;20451;-69
2021/12/24 04:09:13;;;;;;;12.30;11.40;;;;;;;;;;4913910;28;20055;-69
2021/12/24 04:11:57;;;;;;;12.70;11.80;;;;;;;;;;4948396;29;20084;-69
2021/12/24 04:14:23;;;;;;;12.70;11.80;;;;;;;;;;4953343;28;20614;-69
2021/12/24 04:16:48;;;;;;;12.40;11.60;;;;;;;;;;4950204;28;20051;-69
2021/12/24 04:24:53;;;;;;;13.00;12.00;;;;;;;;;;4971444;28;20042;-69
2021/12/24 04:27:29;;;;;;;13.13;11.93;;;;;;;;;;4950135;28;20633;-69
2021/12/24 04:30:06;;;;;;;12.10;11.32;;;;;;;;;;4948206;29;20130;-69
2021/12/24 04:35:38;;;;;;;12.52;11.63;;;;;;;;;;4894081;29;20052;-69
2021/12/24 04:38:28;;;;;;;13.18;12.25;;;;;;;;;;4909740;29;20051;-69
2021/12/24 04:51:58;;;;;;;12.80;11.90;;;;;;;;;;4912628;29;20075;-69
2021/12/24 05:10:40;;;;;;;13.82;12.38;;;;;;;;;;4803395;29;20085;-69
2021/12/24 05:13:10;;;;;;;12.40;11.50;;;;;;;;;;4837587;29;20049;-69
2021/12/24 05:16:04;;;;;;;12.75;11.82;;;;;;;;;;4861561;29;20097;-69
2021/12/24 05:21:36;;;;;;;13.07;11.98;;;;;;;;;;4854119;29;20063;-69
2021/12/24 05:24:07;;;;;;;13.25;12.25;;;;;;;;;;4826536;29;20049;-69
2021/12/24 05:26:35;;;;;;;12.80;11.90;;;;;;;;;;4849612;29;20041;-69
2021/12/24 05:29:02;;;;;;;12.38;11.55;;;;;;;;;;4833950;29;20563;-69
2021/12/24 05:31:29;;;;;;;13.50;12.40;;;;;;;;;;4852983;29;20082;-69
2021/12/24 05:33:54;;;;;;;12.65;11.75;;;;;;;;;;4836540;29;20099;-69
2021/12/24 05:36:21;;;;;;;13.23;12.25;;;;;;;;;;4857904;29;20064;-69
2021/12/24 05:38:48;;;;;;;13.20;11.85;;;;;;;;;;4847564;29;20037;-69
2021/12/24 05:41:14;;;;;;;12.80;11.90;;;;;;;;;;4848891;29;20037;-69
2021/12/24 05:43:40;;;;;;;12.55;11.60;;;;;;;;;;4890987;29;20043;-69
2021/12/24 05:46:06;;;;;;;12.30;11.50;;;;;;;;;;4963377;28;20046;-70
2021/12/24 05:48:46;;;;;;;12.57;11.57;;;;;;;;;;4930486;28;20046;-69
2021/12/24 05:51:13;;;;;;;12.02;11.25;;;;;;;;;;4965461;28;20043;-70
2021/12/24 05:53:45;;;;;;;12.20;11.40;;;;;;;;;;4951105;28;20121;-69
2021/12/24 05:56:19;;;;;;;12.40;11.50;;;;;;;;;;4948614;29;20124;-69
2021/12/24 05:58:49;;;;;;;12.25;11.45;;;;;;;;;;4947411;28;20050;-69
2021/12/24 06:01:15;;;;;;;12.07;11.20;;;;;;;;;;4950076;28;20040;-69
2021/12/24 06:03:44;;;;;;;13.05;11.88;;;;;;;;;;4950568;28;20098;-69
2021/12/24 06:06:10;;;;;;;15.13;13.38;;;;;;;;;;4948336;29;20043;-69
2021/12/24 06:08:35;;;;;;;14.80;13.40;;;;;;;;;;4954694;28;20046;-70
2021/12/24 06:11:01;;;;;;;13.40;12.30;;;;;;;;;;4953650;28;20059;-69
2021/12/24 06:13:29;;;;;;;12.95;11.95;;;;;;;;;;4948115;28;20043;-69
2021/12/24 06:15:55;;;;;;;13.57;12.57;;;;;;;;;;4951335;28;20035;-70
2021/12/24 06:18:26;;;;;;;14.13;12.82;;;;;;;;;;4950829;28;20035;-69
2021/12/24 06:20:53;;;;;;;12.80;11.90;;;;;;;;;;4946279;28;20064;-69
2021/12/24 06:23:22;;;;;;;12.80;11.90;;;;;;;;;;4950431;28;20047;-69
2021/12/24 06:25:50;;;;;;;12.60;11.70;;;;;;;;;;4953969;28;20126;-69
2021/12/24 06:28:15;;;;;;;12.38;11.45;;;;;;;;;;4949551;28;20078;-69
2021/12/24 06:30:42;;;;;;;12.73;11.82;;;;;;;;;;4949234;28;20039;-69
2021/12/24 06:33:08;;;;;;;12.88;12.00;;;;;;;;;;4948430;28;20039;-68
2021/12/24 06:35:35;;;;;;;12.45;11.65;;;;;;;;;;4956143;28;20038;-68
2021/12/24 06:38:01;;;;;;;12.40;11.50;;;;;;;;;;4950239;28;20435;-68
2021/12/24 06:40:27;;;;;;;13.25;12.35;;;;;;;;;;4948964;28;20042;-68
2021/12/24 06:42:52;;;;;;;12.35;11.45;;;;;;;;;;4961324;28;20039;-68
2021/12/24 06:45:23;;;;;;;11.20;10.48;;;;;;;;;;4951581;28;20101;-70
2021/12/24 06:47:53;;;;;;;11.57;10.68;;;;;;;;;;4945384;29;20039;-68
2021/12/24 06:50:18;;;;;;;11.52;10.43;;;;;;;;;;4943570;28;20094;-67
2021/12/24 06:52:45;;;;;;;11.93;10.77;;;;;;;;;;4961745;28;20445;-68
2021/12/24 06:55:11;;;;;;;12.00;11.20;;;;;;;;;;4951430;28;20090;-68
2021/12/24 06:57:41;;;;;;;12.18;10.88;;;;;;;;;;4942750;28;20544;-69
2021/12/24 07:00:11;;;;;;;12.65;11.63;;;;;;;;;;4945302;29;20118;-68
2021/12/24 07:02:37;;;;;;;13.10;12.10;;;;;;;;;;4968215;28;20043;-69
2021/12/24 07:05:03;;;;;;;13.40;12.35;;;;;;;;;;4944709;28;20553;-68
2021/12/24 07:07:28;;;;;;;12.05;11.30;;;;;;;;;;4955772;28;20046;-68
2021/12/24 07:09:54;;;;;;;13.38;12.32;;;;;;;;;;4948442;28;20031;-68
2021/12/24 07:12:20;;;;;;;12.48;11.57;;;;;;;;;;4945844;28;20094;-68
2021/12/24 07:14:47;;;;;;;13.10;12.18;;;;;;;;;;4958745;28;20085;-68
2021/12/24 07:17:12;;;;;;;11.93;11.05;;;;;;;;;;4956207;28;20035;-68
2021/12/24 07:19:38;;;;;;;12.38;11.48;;;;;;;;;;4949895;28;20572;-68
2021/12/24 07:22:04;;;;;;;13.15;12.05;;;;;;;;;;4948346;28;20042;-68
2021/12/24 07:24:30;;;;;;;12.65;11.73;;;;;;;;;;4974555;28;20418;-68
2021/12/24 07:26:55;;;;;;;13.52;11.95;;;;;;;;;;4950075;28;20035;-68
2021/12/24 07:29:21;;;;;;;12.68;11.77;;;;;;;;;;4948427;28;20087;-68
2021/12/24 07:31:47;;;;;;;12.68;11.77;;;;;;;;;;4948333;28;20039;-69
2021/12/24 07:34:12;;;;;;;12.60;11.70;;;;;;;;;;4953755;28;20031;-68
2021/12/24 07:36:38;;;;;;;12.55;11.55;;;;;;;;;;4948202;29;20744;-68
2021/12/24 07:39:04;;;;;;;15.20;13.52;;;;;;;;;;4949163;28;20495;-68
2021/12/24 07:41:30;;;;;;;13.63;12.70;;;;;;;;;;4948129;28;20035;-68
2021/12/24 07:43:56;;;;;;;12.95;12.15;;;;;;;;;;4949278;28;20035;-68
2021/12/24 07:46:24;;;;;;;12.57;11.63;;;;;;;;;;4949373;28;20043;-68
2021/12/24 07:48:50;;;;;;;12.75;11.75;;;;;;;;;;4950068;28;20329;-68
2021/12/24 07:54:03;;;;;;;13.50;12.48;;;;;;;;;;4945208;28;20035;-68
2021/12/24 07:56:32;;;;;;;13.82;12.63;;;;;;;;;;4947396;28;20540;-68
2021/12/24 07:58:58;;;;;;;18.60;16.67;;;;;;;;;;4952380;28;20118;-68
2021/12/24 08:01:26;;;;;;;15.05;13.82;;;;;;;;;;4948862;28;20039;-68
2021/12/24 08:03:53;;;;;;;13.32;12.32;;;;;;;;;;4957601;28;20483;-68
2021/12/24 08:06:19;;;;;;;16.05;14.60;;;;;;;;;;4947690;28;20447;-68
2021/12/24 08:08:45;;;;;;;14.15;12.85;;;;;;;;;;4961153;28;20043;-68
2021/12/24 08:11:11;;;;;;;14.48;13.27;;;;;;;;;;4955227;28;20039;-68
2021/12/24 08:13:36;;;;;;;13.98;12.68;;;;;;;;;;4959338;28;20218;-68
2021/12/24 08:16:02;;;;;;;13.73;12.43;;;;;;;;;;4960937;28;20089;-68
2021/12/24 08:18:28;;;;;;;13.13;12.02;;;;;;;;;;4958891;28;20494;-69
2021/12/24 08:20:53;;;;;;;14.02;12.80;;;;;;;;;;4958059;28;20089;-68
2021/12/24 08:23:19;;;;;;;14.02;12.73;;;;;;;;;;4957574;28;20027;-68
2021/12/24 08:25:44;;;;;;;13.13;12.13;;;;;;;;;;4958842;28;20505;-68
2021/12/24 08:28:10;;;;;;;12.73;11.80;;;;;;;;;;4959762;28;20034;-68
2021/12/24 08:30:36;;;;;;;13.02;12.02;;;;;;;;;;4957714;28;20375;-68
2021/12/24 08:33:02;;;;;;;13.35;12.35;;;;;;;;;;4956183;28;20114;-68
2021/12/24 08:35:28;;;;;;;13.07;12.10;;;;;;;;;;4959711;28;20513;-68
2021/12/24 08:37:55;;;;;;;12.70;11.77;;;;;;;;;;4960325;28;20078;-68
2021/12/24 08:40:20;;;;;;;13.00;12.00;;;;;;;;;;4958617;28;20087;-68
2021/12/24 08:42:46;;;;;;;12.68;11.80;;;;;;;;;;4957827;28;20034;-68
2021/12/24 08:45:13;;;;;;;16.02;12.70;;;;;;;;;;4959293;28;20530;-68
2021/12/24 08:47:39;;;;;;;12.60;11.73;;;;;;;;;;4957806;28;20070;-68
2021/12/24 08:50:07;;;;;;;13.32;12.20;;;;;;;;;;4958019;28;20030;-67
2021/12/24 08:52:33;;;;;;;12.68;11.77;;;;;;;;;;4961943;28;20042;-68
2021/12/24 08:54:59;;;;;;;13.93;12.57;;;;;;;;;;4956657;28;20043;-68
2021/12/24 08:57:25;;;;;;;13.40;12.40;;;;;;;;;;4956504;28;20122;-68
2021/12/24 08:59:50;;;;;;;14.00;13.00;;;;;;;;;;4950624;28;20117;-69
2021/12/24 09:02:17;;;;;;;12.45;11.38;;;;;;;;;;4949893;28;20046;-68
2021/12/24 09:04:42;;;;;;;11.70;10.73;;;;;;;;;;4950891;28;20071;-68
2021/12/24 09:07:08;;;;;;;12.05;11.15;;;;;;;;;;4951159;28;20082;-68
2021/12/24 09:09:33;;;;;;;13.07;11.85;;;;;;;;;;4948669;28;20043;-68
2021/12/24 09:11:59;;;;;;;13.93;12.52;;;;;;;;;;4964920;28;20043;-68
2021/12/24 09:14:25;;;;;;;13.52;12.23;;;;;;;;;;4944519;28;20071;-68
2021/12/24 09:16:52;;;;;;;13.63;12.38;;;;;;;;;;4951015;28;20038;-68
2021/12/24 09:19:23;;;;;;;14.07;12.90;;;;;;;;;;4968946;28;20055;-68
2021/12/24 09:21:49;;;;;;;13.18;11.95;;;;;;;;;;4955475;28;20031;-69
2021/12/24 09:24:18;;;;;;;13.23;12.02;;;;;;;;;;4948491;29;20047;-68
2021/12/24 09:26:43;;;;;;;14.20;12.98;;;;;;;;;;4949508;28;20186;-68
2021/12/24 09:29:11;;;;;;;13.45;12.35;;;;;;;;;;4964843;28;20095;-69
2021/12/24 09:31:37;;;;;;;13.73;12.65;;;;;;;;;;4948127;28;20047;-69
2021/12/24 09:34:03;;;;;;;14.70;13.27;;;;;;;;;;4949421;28;20034;-69
2021/12/24 09:36:29;;;;;;;14.38;13.18;;;;;;;;;;4952701;28;20031;-69
2021/12/24 09:38:58;;;;;;;14.95;13.77;;;;;;;;;;4953297;28;20472;-68
2021/12/24 09:41:24;;;;;;;14.00;12.73;;;;;;;;;;4951466;28;20038;-68
2021/12/24 09:43:51;;;;;;;13.85;12.85;;;;;;;;;;4955799;28;20054;-69
2021/12/24 09:46:17;;;;;;;12.73;11.73;;;;;;;;;;4950397;28;20248;-68
2021/12/24 09:48:43;;;;;;;13.10;12.20;;;;;;;;;;4950361;28;20097;-69
2021/12/24 09:51:09;;;;;;;12.90;11.82;;;;;;;;;;4949852;28;20110;-69
2021/12/24 09:53:37;;;;;;;13.35;12.07;;;;;;;;;;4953075;28;20031;-69
2021/12/24 09:56:05;;;;;;;14.50;13.20;;;;;;;;;;4948736;28;20085;-69
2021/12/24 09:58:31;;;;;;;13.52;12.23;;;;;;;;;;4949400;28;20031;-69
2021/12/24 10:00:57;;;;;;;12.73;11.63;;;;;;;;;;4947088;28;20035;-69
2021/12/24 10:03:34;;;;;;;12.95;11.90;;;;;;;;;;4954657;28;20035;-69
2021/12/24 10:06:00;;;;;;;12.13;11.13;;;;;;;;;;4944319;29;20055;-69
2021/12/24 10:08:28;;;;;;;11.88;10.73;;;;;;;;;;4946367;28;20046;-68
2021/12/24 10:11:04;;;;;;;11.88;10.38;;;;;;;;;;4946665;28;20117;-69
2021/12/24 10:13:44;;;;;;;12.73;11.55;;;;;;;;;;4949778;28;20035;-68
2021/12/24 10:16:20;;;;;;;12.70;11.60;;;;;;;;;;4948830;29;20502;-69
2021/12/24 10:18:47;;;;;;;12.45;11.32;;;;;;;;;;4947579;28;20484;-68
2021/12/24 10:21:16;;;;;;;12.38;11.27;;;;;;;;;;4955213;28;20407;-69
2021/12/24 10:23:43;;;;;;;13.05;12.00;;;;;;;;;;4948367;28;20035;-68
2021/12/24 10:26:13;;;;;;;12.88;11.68;;;;;;;;;;4949353;28;20035;-68
2021/12/24 10:28:48;;;;;;;12.75;11.55;;;;;;;;;;4950719;28;20486;-68
2021/12/24 10:31:37;;;;;;;11.95;10.93;;;;;;;;;;4949068;28;20040;-69
2021/12/24 10:34:14;;;;;;;;;;;;;;;;;;4928874;28;20450;-69
2021/12/24 10:37:05;;;;;;;11.88;10.88;;;;;;;;;;4957460;28;19993;-69
2021/12/24 10:39:42;;;;;;;12.05;10.95;;;;;;;;;;4948596;29;20038;-68
2021/12/24 10:42:20;;;;;;;13.07;10.88;;;;;;;;;;4958523;28;20443;-69
2021/12/24 10:44:48;;;;;;;11.65;10.55;;;;;;;;;;4967641;28;20042;-68
2021/12/24 10:47:19;;;;;;;12.32;11.25;;;;;;;;;;4948924;28;20039;-68
2021/12/24 10:50:27;;;;;;;11.75;10.75;;;;;;;;;;4949160;28;20027;-68
2021/12/24 10:55:43;;;;;;;12.55;11.05;;;;;;;;;;4949782;29;20031;-69
2021/12/24 10:58:17;;;;;;;12.05;11.00;;;;;;;;;;4949093;28;20039;-69
2021/12/24 11:00:58;;;;;;;12.10;11.10;;;;;;;;;;4949371;28;20499;-68
2021/12/24 11:03:31;;;;;;;12.13;11.10;;;;;;;;;;4957105;28;20505;-68
2021/12/24 11:06:08;;;;;;;12.38;11.38;;;;;;;;;;4943108;29;20045;-68
2021/12/24 11:08:35;;;;;;;12.38;11.18;;;;;;;;;;4944999;28;20042;-68
2021/12/24 11:11:04;;;;;;;12.82;11.65;;;;;;;;;;4942247;28;20066;-68
2021/12/24 11:13:40;;;;;;;12.27;11.25;;;;;;;;;;4947802;28;20041;-68
2021/12/24 11:16:10;;;;;;;13.30;12.20;;;;;;;;;;4948883;28;20431;-68
2021/12/24 11:18:40;;;;;;;13.68;12.27;;;;;;;;;;4946527;28;20438;-68
2021/12/24 11:21:08;;;;;;;;;;;;;;;;;;4954891;28;20039;-68
2021/12/24 11:23:36;;;;;;;14.23;11.88;;;;;;;;;;4946530;28;19949;-69
2021/12/24 11:26:10;;;;;;;13.23;11.93;;;;;;;;;;4946009;28;20697;-67
2021/12/24 11:28:37;;;;;;;13.48;12.25;;;;;;;;;;4944684;28;20151;-67
2021/12/24 11:31:06;;;;;;;13.70;12.50;;;;;;;;;;4947111;28;20613;-67
2021/12/24 11:33:35;;;;;;;13.75;12.40;;;;;;;;;;4945953;28;20035;-69
2021/12/24 11:36:03;;;;;;;13.27;12.07;;;;;;;;;;4956120;28;21073;-67
2021/12/24 11:38:32;;;;;;;12.90;11.63;;;;;;;;;;4970691;28;20050;-67
2021/12/24 11:41:00;;;;;;;15.25;12.90;;;;;;;;;;4946045;29;20036;-67
2021/12/24 11:43:29;;;;;;;13.68;12.48;;;;;;;;;;4952590;28;20082;-67
2021/12/24 11:45:59;;;;;;;12.73;11.70;;;;;;;;;;4943101;28;20038;-67
2021/12/24 11:48:27;;;;;;;12.65;11.73;;;;;;;;;;4951349;28;20460;-69
2021/12/24 11:50:54;;;;;;;12.80;11.55;;;;;;;;;;4953903;28;20102;-67
2021/12/24 11:53:20;;;;;;;13.70;12.50;;;;;;;;;;4952883;28;20039;-68
2021/12/24 11:55:48;;;;;;;13.10;12.05;;;;;;;;;;4953845;28;20121;-69
2021/12/24 11:58:16;;;;;;;13.90;12.50;;;;;;;;;;4957113;28;20035;-69
2021/12/24 12:00:44;;;;;;;13.52;12.32;;;;;;;;;;4952332;28;20155;-69
2021/12/24 12:03:30;;;;;;;12.95;11.85;;;;;;;;;;4949630;29;20446;-69
2021/12/24 12:06:01;;;;;;;13.13;11.98;;;;;;;;;;4947593;29;20040;-68
2021/12/24 12:08:33;;;;;;;13.15;12.13;;;;;;;;;;4946049;28;20074;-67
2021/12/24 12:11:02;;;;;;;12.60;11.50;;;;;;;;;;4960820;28;20027;-69
2021/12/24 12:14:05;;;;;;;12.55;11.43;;;;;;;;;;4949781;28;20537;-67
2021/12/24 12:16:42;;;;;;;13.05;11.95;;;;;;;;;;4949919;28;20044;-67
2021/12/24 12:22:19;;;;;;;14.13;12.82;;;;;;;;;;4945866;29;20045;-66
2021/12/24 12:24:59;;;;;;;13.60;12.27;;;;;;;;;;4953319;28;20035;-69
2021/12/24 12:27:41;;;;;;;14.15;12.95;;;;;;;;;;4951992;28;20039;-67
2021/12/24 12:30:29;;;;;;;12.73;11.63;;;;;;;;;;4950929;28;20427;-67
2021/12/24 12:33:07;;;;;;;12.35;11.35;;;;;;;;;;4950809;28;20034;-68
2021/12/24 12:35:35;;;;;;;12.48;11.48;;;;;;;;;;4948280;29;20418;-67
2021/12/24 12:38:01;;;;;;;12.05;11.05;;;;;;;;;;4939694;29;20024;-67
2021/12/24 12:40:30;;;;;;;12.50;11.30;;;;;;;;;;4948453;29;20138;-67
2021/12/24 12:43:06;;;;;;;12.43;11.48;;;;;;;;;;4956927;28;20041;-67
2021/12/24 12:45:42;;;;;;;11.85;10.95;;;;;;;;;;4936435;29;20047;-67
2021/12/24 12:48:10;;;;;;;11.90;11.00;;;;;;;;;;4949955;28;20039;-67
2021/12/24 12:50:40;;;;;;;11.50;10.60;;;;;;;;;;4951367;28;20100;-67
2021/12/24 12:53:30;;;;;;;11.25;10.07;;;;;;;;;;4962799;28;20034;-66
2021/12/24 12:56:27;;;;;;;10.75;9.88;;;;;;;;;;4946513;28;20640;-68
2021/12/24 12:59:03;;;;;;;10.75;9.95;;;;;;;;;;4953519;28;20383;-68
2021/12/24 13:01:29;;;;;;;11.07;9.93;;;;;;;;;;4949511;28;20164;-68
2021/12/24 13:03:57;;;;;;;9.93;9.23;;;;;;;;;;4949744;29;20046;-68
2021/12/24 13:06:24;;;;;;;10.05;9.15;;;;;;;;;;4964699;28;20047;-68
2021/12/24 13:08:50;;;;;;;12.15;11.02;;;;;;;;;;4955726;28;20040;-68
2021/12/24 13:11:18;;;;;;;12.23;10.98;;;;;;;;;;4946017;28;20118;-67
2021/12/24 13:13:55;;;;;;;11.57;10.57;;;;;;;;;;4955528;28;20043;-67
2021/12/24 13:16:44;;;;;;;11.88;10.82;;;;;;;;;;4952718;28;20161;-67
2021/12/24 13:24:54;;;;;;;11.80;10.63;;;;;;;;;;4951135;29;20415;-69
2021/12/24 13:27:24;;;;;;;11.30;10.50;;;;;;;;;;4944234;28;20042;-67
2021/12/24 13:30:04;;;;;;;12.13;11.13;;;;;;;;;;4957183;28;20042;-67
2021/12/24 13:32:29;;;;;;;11.93;10.98;;;;;;;;;;4948003;29;20039;-67
2021/12/24 13:34:56;;;;;;;11.43;10.48;;;;;;;;;;4947807;28;20050;-67
2021/12/24 13:37:21;;;;;;;11.82;10.93;;;;;;;;;;4944294;28;20406;-66
2021/12/24 13:39:51;;;;;;;12.80;11.70;;;;;;;;;;4953369;28;20051;-67
2021/12/24 13:42:17;;;;;;;11.50;10.60;;;;;;;;;;4944901;28;20042;-66
2021/12/24 13:44:43;;;;;;;11.25;10.45;;;;;;;;;;4953737;28;20055;-69
2021/12/24 13:47:12;;;;;;;12.38;11.38;;;;;;;;;;4948748;28;20039;-66
2021/12/24 13:54:51;;;;;;;12.02;11.13;;;;;;;;;;4949480;28;20035;-67
2021/12/24 13:57:17;;;;;;;12.65;11.57;;;;;;;;;;4944519;28;20043;-67
2021/12/24 13:59:50;;;;;;;13.75;11.48;;;;;;;;;;4947138;28;20035;-67
2021/12/24 14:02:16;;;;;;;11.80;10.55;;;;;;;;;;4939841;28;20039;-69
2021/12/24 14:04:41;;;;;;;12.07;10.90;;;;;;;;;;4944681;28;20501;-68
2021/12/24 14:07:08;;;;;;;12.00;11.15;;;;;;;;;;4946251;28;20050;-68
2021/12/24 14:09:35;;;;;;;16.02;11.15;;;;;;;;;;4944127;28;20062;-68
2021/12/24 14:12:06;;;;;;;12.77;11.57;;;;;;;;;;4940466;28;20031;-68
2021/12/24 14:14:44;;;;;;;12.43;11.32;;;;;;;;;;4948138;28;20495;-68
2021/12/24 14:17:47;;;;;;;12.88;11.65;;;;;;;;;;4945318;29;20042;-68
2021/12/24 14:20:15;;;;;;;11.90;10.80;;;;;;;;;;4939468;28;20030;-67
2021/12/24 14:22:41;;;;;;;12.63;11.45;;;;;;;;;;4944805;28;20217;-68
2021/12/24 14:25:13;;;;;;;12.35;11.25;;;;;;;;;;4943648;28;20059;-68
2021/12/24 14:27:45;;;;;;;12.73;11.57;;;;;;;;;;4946959;28;20038;-68
2021/12/24 14:30:12;;;;;;;11.50;10.50;;;;;;;;;;4948385;28;20066;-68
2021/12/24 14:32:42;;;;;;;12.50;10.93;;;;;;;;;;4946964;28;20035;-68
2021/12/24 14:35:14;;;;;;;;;;;;;;;;;;4942996;29;20043;-67
2021/12/24 14:37:40;;;;;;;11.85;10.73;;;;;;;;;;4950986;28;20030;-68
2021/12/24 14:40:05;;;;;;;12.20;11.20;;;;;;;;;;4947605;28;20036;-67
2021/12/24 14:42:42;;;;;;;11.13;10.32;;;;;;;;;;4943158;29;20612;-67
2021/12/24 14:45:22;;;;;;;11.68;10.60;;;;;;;;;;4948689;28;20507;-67
2021/12/24 14:48:00;;;;;;;11.00;10.20;;;;;;;;;;4961961;28;20130;-67
2021/12/24 14:50:27;;;;;;;11.52;10.73;;;;;;;;;;4947748;28;20399;-67
2021/12/24 14:53:10;;;;;;;11.75;10.77;;;;;;;;;;4946517;28;20039;-69
2021/12/24 14:56:04;;;;;;;11.57;10.48;;;;;;;;;;4951520;28;20055;-68
2021/12/24 14:58:59;;;;;;;12.32;11.13;;;;;;;;;;4946801;28;20047;-69
2021/12/24 15:01:32;;;;;;;11.50;10.60;;;;;;;;;;4946303;29;20770;-68
2021/12/24 15:04:03;;;;;;;11.25;10.27;;;;;;;;;;4946331;28;20046;-68
2021/12/24 15:06:46;;;;;;;11.10;10.10;;;;;;;;;;4938087;29;20053;-69
2021/12/24 15:09:12;;;;;;;11.77;10.73;;;;;;;;;;4941055;29;20049;-67
2021/12/24 15:11:39;;;;;;;10.75;9.85;;;;;;;;;;4946516;28;20047;-68
2021/12/24 15:14:08;;;;;;;12.25;11.02;;;;;;;;;;4948140;29;20042;-70
2021/12/24 15:16:46;;;;;;;11.57;10.40;;;;;;;;;;4951113;28;20046;-67
2021/12/24 15:19:12;;;;;;;11.52;10.38;;;;;;;;;;4942978;29;20515;-67
2021/12/24 15:21:38;;;;;;;15.88;11.00;;;;;;;;;;4953988;28;20046;-67
2021/12/24 15:24:06;;;;;;;11.70;10.68;;;;;;;;;;4954925;28;20134;-67
2021/12/24 15:26:32;;;;;;;18.73;14.45;;;;;;;;;;4958471;28;20557;-67
2021/12/24 15:29:00;;;;;;;12.23;11.18;;;;;;;;;;4951376;28;20043;-68
2021/12/24 15:31:27;;;;;;;12.23;11.07;;;;;;;;;;4953607;28;20035;-68
2021/12/24 15:33:53;;;;;;;13.63;12.43;;;;;;;;;;4950260;29;20054;-68
2021/12/24 15:36:19;;;;;;;13.70;12.40;;;;;;;;;;4952396;28;20391;-68
2021/12/24 15:38:46;;;;;;;13.93;12.65;;;;;;;;;;4946545;28;20042;-67
2021/12/24 15:41:12;;;;;;;14.90;12.68;;;;;;;;;;4948180;28;20074;-67
2021/12/24 15:43:39;;;;;;;14.70;13.40;;;;;;;;;;4953183;28;20127;-68
2021/12/24 15:46:05;;;;;;;14.93;13.63;;;;;;;;;;4952077;28;20125;-68
2021/12/24 15:48:31;;;;;;;14.65;13.25;;;;;;;;;;4950623;28;20495;-69
2021/12/24 15:50:57;;;;;;;15.80;13.13;;;;;;;;;;4947780;28;20027;-69
2021/12/24 15:53:25;;;;;;;14.60;13.35;;;;;;;;;;4950552;28;20042;-69
2021/12/24 15:55:51;;;;;;;14.55;13.13;;;;;;;;;;4950468;28;20584;-69
2021/12/24 15:58:18;;;;;;;15.15;13.73;;;;;;;;;;4950981;28;20035;-69
2021/12/24 16:00:47;;;;;;;17.35;15.43;;;;;;;;;;4952338;28;20035;-69
2021/12/24 16:03:12;;;;;;;13.85;12.75;;;;;;;;;;4958830;28;20446;-69
2021/12/24 16:05:39;;;;;;;15.30;13.88;;;;;;;;;;4949781;29;20035;-69
2021/12/24 16:08:05;;;;;;;14.75;13.40;;;;;;;;;;4947309;28;20043;-70
2021/12/24 16:10:32;;;;;;;17.73;16.13;;;;;;;;;;4949027;28;20047;-69
2021/12/24 16:12:58;;;;;;;16.05;14.63;;;;;;;;;;4959399;28;20053;-69
2021/12/24 16:15:25;;;;;;;23.42;19.67;;;;;;;;;;4950485;28;20182;-69
2021/12/24 16:17:50;;;;;;;32.85;19.95;;;;;;;;;;4951503;28;20047;-69
2021/12/24 16:20:17;;;;;;;54.75;29.27;;;;;;;;;;4955849;28;20042;-69
2021/12/24 16:22:43;;;;;;;31.88;22.08;;;;;;;;;;4954702;28;20271;-70
2021/12/24 16:25:11;;;;;;;19.98;18.05;;;;;;;;;;4949294;28;20122;-70
2021/12/24 16:27:37;;;;;;;18.45;16.60;;;;;;;;;;4952025;28;20229;-70
2021/12/24 16:30:21;;;;;;;29.05;24.02;;;;;;;;;;4953087;28;20035;-70
2021/12/24 16:32:47;;;;;;;19.90;17.60;;;;;;;;;;4946515;29;20050;-70
2021/12/24 16:35:19;;;;;;;28.20;25.25;;;;;;;;;;4948193;29;20043;-70
2021/12/24 16:37:46;;;;;;;19.58;17.45;;;;;;;;;;4951442;28;20094;-70